Back to Top

Language: 

My Weather Underground Personal Weather Station Historical Data with Graphs...

Delerius Weather Station Historical Data
Daily Summary for August 21, 2017 Units:  Metric    English   Both
« Previous Day
Next Day »
Daily Weekly Monthly Yearly Custom
  High: Low: Average:
Temperature: 18.1 °C 8.7 °C 14.7 °C
Dew Point: 15.4 °C 7.8 °C 12.5 °C
Humidity: 96 % 74 % 87 %
Wind Speed: 11.3 km/h 0 km/h 3.5 km/h
Wind Gust: 20.9 km/h - -
Wind:- - South
Pressure: 1021.6 hPa 1019.2 hPa -
Precipitation: 0.25 mm    
Historical Graphs
 
 
Tabular Data for August 21, 2017
Time Temperature Dew Point Pressure Wind Wind Speed Wind Gust Humidity Rainfall Rate (Hourly) solar Conditions
00:01 12.6 °C 10.8 °C 1021.2 hPa Calm     89 % 0 mm 0 W/m2
00:06 12.5 °C 10.6 °C 1021.2 hPa Calm     88 % 0 mm 0 W/m2
00:11 12.4 °C 10.6 °C 1021.2 hPa Calm     89 % 0 mm 0 W/m2
00:16 12.3 °C 10.6 °C 1021.2 hPa Calm     89 % 0 mm 0 W/m2
00:21 12.2 °C 10.4 °C 1021.2 hPa Calm     89 % 0 mm 0 W/m2
00:26 12.2 °C 10.4 °C 1021.6 hPa Calm     89 % 0 mm 0 W/m2
00:29 12.1 °C 10.3 °C 1021.6 hPa Calm     89 % 0 mm 0 W/m2
00:34 12.1 °C 10.3 °C 1021.6 hPa Calm     89 % 0 mm 0 W/m2
00:39 12 °C 10.2 °C 1021.6 hPa Calm     89 % 0 mm 0 W/m2
00:44 11.9 °C 10.3 °C 1021.6 hPa Calm     90 % 0 mm 0 W/m2
00:49 11.8 °C 10.2 °C 1021.6 hPa Calm     90 % 0 mm 0 W/m2
00:54 11.7 °C 10.1 °C 1021.6 hPa Calm     90 % 0 mm 0 W/m2
00:59 11.7 °C 10.1 °C 1021.6 hPa Calm     90 % 0 mm 0 W/m2
01:04 11.6 °C 10 °C 1021.6 hPa Calm     90 % 0 mm 0 W/m2
01:09 11.4 °C 9.8 °C 1021.6 hPa Calm     90 % 0 mm 0 W/m2
01:14 11.3 °C 9.7 °C 1021.6 hPa Calm     90 % 0 mm 0 W/m2
01:19 11.3 °C 9.7 °C 1021.6 hPa Calm     90 % 0 mm 0 W/m2
01:24 11.2 °C 9.8 °C 1021.6 hPa Calm     91 % 0 mm 0 W/m2
01:29 11.1 °C 9.7 °C 1021.6 hPa Calm     91 % 0 mm 0 W/m2
01:34 11.1 °C 9.7 °C 1021.6 hPa Calm     91 % 0 mm 0 W/m2
01:39 10.9 °C 9.5 °C 1021.6 hPa Calm     91 % 0 mm 0 W/m2
01:41 10.9 °C 9.5 °C 1021.6 hPa Calm     91 % 0 mm 0 W/m2
01:46 10.8 °C 9.4 °C 1021.6 hPa Calm     91 % 0 mm 0 W/m2
01:51 10.7 °C 9.3 °C 1021.6 hPa Calm     91 % 0 mm 0 W/m2
01:56 10.7 °C 9.3 °C 1021.6 hPa Calm     91 % 0 mm 0 W/m2
02:01 10.6 °C 9.3 °C 1021.6 hPa Calm     92 % 0 mm 0 W/m2
02:06 10.6 °C 9.3 °C 1021.6 hPa Calm     92 % 0 mm 0 W/m2
02:07 10.6 °C 9.3 °C 1021.6 hPa Calm     92 % 0 mm 0 W/m2
02:12 10.5 °C 9.3 °C 1021.6 hPa Calm     92 % 0 mm 0 W/m2
02:17 10.4 °C 9.2 °C 1021.6 hPa Calm     92 % 0 mm 0 W/m2
02:22 10.3 °C 9.1 °C 1021.6 hPa Calm     92 % 0 mm 0 W/m2
02:27 10.2 °C 8.9 °C 1021.6 hPa Calm     92 % 0 mm 0 W/m2
02:32 10.1 °C 8.8 °C 1021.6 hPa Calm     92 % 0 mm 0 W/m2
02:37 10.1 °C 9 °C 1021.6 hPa Calm     93 % 0 mm 0 W/m2
02:42 10 °C 8.8 °C 1021.6 hPa Calm     92 % 0 mm 0 W/m2
02:47 9.9 °C 8.8 °C 1021.2 hPa Calm     93 % 0 mm 0 W/m2
02:52 9.9 °C 8.7 °C 1021.2 hPa Calm     92 % 0 mm 0 W/m2
02:57 9.8 °C 8.7 °C 1021.2 hPa Calm     93 % 0 mm 0 W/m2
03:02 9.7 °C 8.6 °C 1021.2 hPa Calm     93 % 0 mm 0 W/m2
03:07 9.7 °C 8.6 °C 1021.2 hPa Calm     93 % 0 mm 0 W/m2
03:12 9.6 °C 8.5 °C 1021.2 hPa Calm     93 % 0 mm 0 W/m2
03:17 9.6 °C 8.5 °C 1021.2 hPa Calm     93 % 0 mm 0 W/m2
03:22 9.7 °C 8.8 °C 1021.2 hPa Calm     94 % 0 mm 0 W/m2
03:27 9.8 °C 8.7 °C 1020.9 hPa Calm     93 % 0 mm 0 W/m2
03:32 9.7 °C 8.6 °C 1020.9 hPa Calm     93 % 0 mm 0 W/m2
03:37 9.5 °C 8.4 °C 1020.9 hPa Calm   1.6 km/h 93 % 0 mm 0 W/m2
03:42 9.4 °C 8.3 °C 1020.9 hPa Calm   1.6 km/h 93 % 0 mm 0 W/m2
03:47 9.3 °C 8.2 °C 1020.9 hPa Calm     93 % 0 mm 0 W/m2
03:52 9.3 °C 8.2 °C 1020.9 hPa Calm     93 % 0 mm 0 W/m2
03:57 9.2 °C 8.1 °C 1020.9 hPa Calm     93 % 0 mm 0 W/m2
04:02 9.2 °C 8.3 °C 1020.9 hPa Calm     94 % 0 mm 0 W/m2
04:07 9.1 °C 8.2 °C 1020.9 hPa Calm   3.2 km/h 94 % 0 mm 0 W/m2
04:12 9.2 °C 8.3 °C 1020.9 hPa Calm   3.2 km/h 94 % 0 mm 0 W/m2
04:17 9.2 °C 8.3 °C 1020.5 hPa Calm     94 % 0 mm 0 W/m2
04:22 9.2 °C 8.3 °C 1020.5 hPa Calm     94 % 0 mm 0 W/m2
04:27 9.2 °C 8.3 °C 1020.5 hPa Calm     94 % 0 mm 0 W/m2
04:32 9.1 °C 8.2 °C 1020.9 hPa Calm     94 % 0 mm 0 W/m2
04:37 8.9 °C 7.8 °C 1020.5 hPa Calm     93 % 0 mm 0 W/m2
04:42 8.9 °C 8 °C 1020.5 hPa Calm     94 % 0 mm 0 W/m2
04:47 8.9 °C 8 °C 1020.5 hPa Calm     94 % 0 mm 0 W/m2
04:49 8.9 °C 8 °C 1020.9 hPa Calm     94 % 0 mm 0 W/m2
04:54 8.8 °C 7.9 °C 1020.9 hPa Calm   3.2 km/h 94 % 0 mm 0 W/m2
05:00 8.8 °C 7.9 °C 1020.9 hPa Calm   3.2 km/h 94 % 0 mm 0 W/m2
05:05 8.8 °C 7.9 °C 1020.9 hPa Calm     94 % 0 mm 0 W/m2
05:10 8.7 °C 7.8 °C 1020.9 hPa Calm     94 % 0 mm 0 W/m2
05:15 8.7 °C 7.8 °C 1020.9 hPa Calm     94 % 0 mm 0 W/m2
05:20 8.8 °C 8.1 °C 1020.9 hPa Calm     95 % 0 mm 0 W/m2
05:25 8.9 °C 8.2 °C 1020.9 hPa Calm     95 % 0 mm 0 W/m2
05:30 8.9 °C 8.2 °C 1020.9 hPa Calm     95 % 0 mm 0 W/m2
05:35 9 °C 8.2 °C 1020.9 hPa Calm     95 % 0 mm 0 W/m2
05:40 9 °C 8.2 °C 1020.9 hPa Calm     95 % 0 mm 0 W/m2
05:45 9 °C 8.2 °C 1020.9 hPa Calm     95 % 0 mm 0 W/m2
05:50 9.1 °C 8.3 °C 1020.9 hPa Calm     95 % 0 mm 0 W/m2
05:55 9 °C 8.2 °C 1020.9 hPa Calm     95 % 0 mm 0 W/m2
06:00 8.9 °C 8.2 °C 1020.9 hPa Calm     95 % 0 mm 0 W/m2
06:05 8.9 °C 8.2 °C 1020.9 hPa Calm   1.6 km/h 95 % 0 mm 5 W/m2
06:10 8.9 °C 8.2 °C 1021.2 hPa Calm   1.6 km/h 95 % 0 mm 7 W/m2
06:15 8.8 °C 8.1 °C 1021.2 hPa Calm     95 % 0 mm 11 W/m2
06:20 8.8 °C 8.1 °C 1021.2 hPa Calm     95 % 0 mm 12 W/m2
06:25 8.8 °C 8.1 °C 1021.2 hPa Calm     95 % 0 mm 14 W/m2
06:30 8.8 °C 8.1 °C 1021.2 hPa Calm     95 % 0 mm 18 W/m2
06:35 8.8 °C 8.1 °C 1021.2 hPa Calm     95 % 0 mm 21 W/m2
06:40 8.7 °C 7.9 °C 1021.2 hPa Calm     95 % 0 mm 23 W/m2
06:45 8.7 °C 7.9 °C 1021.2 hPa Calm   1.6 km/h 95 % 0 mm 26 W/m2
06:50 8.8 °C 8.1 °C 1021.2 hPa Calm   1.6 km/h 95 % 0 mm 30 W/m2
06:55 9 °C 8.4 °C 1020.9 hPa Calm     96 % 0 mm 37 W/m2
07:00 9.2 °C 8.6 °C 1020.9 hPa Calm     96 % 0 mm 46 W/m2
07:05 9.2 °C 8.6 °C 1021.2 hPa Calm     96 % 0 mm 63 W/m2
07:10 9.4 °C 8.8 °C 1021.2 hPa Calm     96 % 0 mm 69 W/m2
07:15 9.6 °C 9 °C 1021.2 hPa Calm     96 % 0 mm 70 W/m2
07:20 9.7 °C 9.1 °C 1021.2 hPa Calm     96 % 0 mm 120 W/m2
07:25 9.8 °C 9.2 °C 1021.2 hPa Calm     96 % 0 mm 135 W/m2
07:30 10 °C 9.4 °C 1021.6 hPa Calm     96 % 0 mm 69 W/m2
07:35 10.1 °C 9.3 °C 1021.2 hPa Calm     95 % 0 mm 65 W/m2
07:40 10.2 °C 9.6 °C 1021.6 hPa Calm     96 % 0 mm 65 W/m2
07:45 10.4 °C 9.8 °C 1021.6 hPa Calm     96 % 0 mm 65 W/m2
07:50 10.6 °C 10 °C 1021.6 hPa Calm     96 % 0 mm 88 W/m2
07:55 10.7 °C 9.9 °C 1021.6 hPa Calm     95 % 0 mm 93 W/m2
08:00 10.9 °C 10.1 °C 1021.6 hPa Calm     95 % 0 mm 225 W/m2
08:05 11.1 °C 10.3 °C 1021.6 hPa Calm     95 % 0 mm 225 W/m2
08:10 11.3 °C 10.6 °C 1021.6 hPa Calm     95 % 0 mm 232 W/m2
08:15 11.7 °C 10.9 °C 1021.6 hPa Calm     95 % 0 mm 243 W/m2
08:20 12 °C 11.2 °C 1021.6 hPa Calm   1.6 km/h 95 % 0 mm 264 W/m2
08:25 12.3 °C 11.5 °C 1021.6 hPa Calm   1.6 km/h 95 % 0 mm 283 W/m2
08:30 12.9 °C 11.9 °C 1021.2 hPa Calm   3.2 km/h 94 % 0 mm 294 W/m2
08:35 13.4 °C 12.3 °C 1021.2 hPa East 1.6 km/h 4.8 km/h 93 % 0 mm 260 W/m2
08:40 13.8 °C 12.5 °C 1021.2 hPa East 1.6 km/h 6.4 km/h 92 % 0 mm 322 W/m2
08:45 14.1 °C 12.7 °C 1021.2 hPa ESE 3.2 km/h 11.3 km/h 91 % 0 mm 334 W/m2
08:50 14.4 °C 12.8 °C 1021.2 hPa ESE 6.4 km/h 11.3 km/h 90 % 0 mm 381 W/m2
08:55 14.7 °C 12.7 °C 1021.2 hPa ESE 4.8 km/h 11.3 km/h 88 % 0 mm 299 W/m2
09:00 14.8 °C 12.8 °C 1021.2 hPa ESE 3.2 km/h 11.3 km/h 88 % 0 mm 318 W/m2
09:05 15 °C 12.8 °C 1021.2 hPa East 3.2 km/h 11.3 km/h 87 % 0 mm 236 W/m2
09:10 15.1 °C 12.9 °C 1021.2 hPa ESE 3.2 km/h 9.7 km/h 87 % 0 mm 269 W/m2
09:15 15.2 °C 13.1 °C 1021.2 hPa SE 1.6 km/h 9.7 km/h 87 % 0 mm 448 W/m2
09:20 15.5 °C 13.3 °C 1021.2 hPa SE 1.6 km/h 8 km/h 87 % 0 mm 454 W/m2
09:30 15.4 °C 12.9 °C 1021.2 hPa SSE 4.8 km/h 11.3 km/h 85 % 0 mm 241 W/m2
09:35 15.6 °C 13.3 °C 1021.2 hPa SSE 3.2 km/h 11.3 km/h 86 % 0 mm 362 W/m2
09:37 15.8 °C 13.3 °C 1021.2 hPa SSE 3.2 km/h 11.3 km/h 85 % 0 mm 362 W/m2
09:42 16.1 °C 13.6 °C 1021.2 hPa SE 6.4 km/h 11.3 km/h 85 % 0 mm 650 W/m2
09:47 16.4 °C 13.5 °C 1020.9 hPa ESE 6.4 km/h 11.3 km/h 83 % 0 mm 636 W/m2
09:52 16.6 °C 13.5 °C 1020.9 hPa ESE 6.4 km/h 11.3 km/h 82 % 0 mm 408 W/m2
09:57 16.7 °C 13.4 °C 1020.9 hPa SE 8 km/h 12.9 km/h 81 % 0 mm 322 W/m2
10:02 16.7 °C 13.4 °C 1021.2 hPa SE 6.4 km/h 12.9 km/h 81 % 0 mm 260 W/m2
10:07 16.7 °C 13.2 °C 1021.2 hPa SSE 6.4 km/h 12.9 km/h 80 % 0 mm 290 W/m2
10:12 16.7 °C 13.4 °C 1021.2 hPa South 8 km/h 14.5 km/h 81 % 0 mm 250 W/m2
10:17 16.8 °C 13.5 °C 1021.2 hPa South 8 km/h 14.5 km/h 81 % 0 mm 608 W/m2
10:22 17.1 °C 13.6 °C 1021.6 hPa South 6.4 km/h 14.5 km/h 80 % 0 mm 633 W/m2
10:27 17.1 °C 13.4 °C 1021.6 hPa South 8 km/h 12.9 km/h 79 % 0 mm 686 W/m2
10:32 17.4 °C 13.5 °C 1021.2 hPa SSE 8 km/h 16.1 km/h 78 % 0 mm 649 W/m2
10:37 17.8 °C 13.7 °C 1021.6 hPa SE 9.7 km/h 17.7 km/h 77 % 0 mm 598 W/m2
10:42 17.9 °C 13.4 °C 1021.6 hPa SSE 8 km/h 17.7 km/h 75 % 0 mm 457 W/m2
10:47 17.9 °C 13.4 °C 1021.2 hPa South 9.7 km/h 14.5 km/h 75 % 0 mm 568 W/m2
10:52 17.9 °C 13.2 °C 1021.2 hPa SSE 9.7 km/h 16.1 km/h 74 % 0 mm 297 W/m2
10:57 17.9 °C 13.4 °C 1021.2 hPa SSE 9.7 km/h 16.1 km/h 75 % 0 mm 316 W/m2
11:02 17.8 °C 13.5 °C 1021.2 hPa South 8 km/h 14.5 km/h 76 % 0 mm 294 W/m2
11:07 17.7 °C 13.2 °C 1021.2 hPa SSW 9.7 km/h 19.3 km/h 75 % 0 mm 285 W/m2
11:13 17.7 °C 13.4 °C 1021.2 hPa South 9.7 km/h 19.3 km/h 76 % 0 mm 339 W/m2
11:18 17.8 °C 13.5 °C 1021.2 hPa SSE 8 km/h 14.5 km/h 76 % 0 mm 304 W/m2
11:23 17.8 °C 13.3 °C 1021.2 hPa SSE 9.7 km/h 17.7 km/h 75 % 0 mm 239 W/m2
11:28 17.7 °C 13.4 °C 1021.2 hPa South 11.3 km/h 17.7 km/h 76 % 0 mm 301 W/m2
11:33 17.7 °C 13.6 °C 1021.2 hPa South 9.7 km/h 19.3 km/h 77 % 0 mm 338 W/m2
11:38 17.7 °C 13.6 °C 1020.9 hPa SSW 9.7 km/h 19.3 km/h 77 % 0 mm 325 W/m2
11:43 17.8 °C 13.7 °C 1020.9 hPa SSW 8 km/h 19.3 km/h 77 % 0 mm 220 W/m2
11:48 17.7 °C 13.6 °C 1020.9 hPa SSW 6.4 km/h 11.3 km/h 77 % 0 mm 160 W/m2
11:53 17.6 °C 13.5 °C 1020.9 hPa SSW 9.7 km/h 19.3 km/h 77 % 0 mm 229 W/m2
11:58 17.6 °C 13.5 °C 1020.9 hPa South 11.3 km/h 19.3 km/h 77 % 0 mm 183 W/m2
12:03 17.6 °C 13.7 °C 1020.9 hPa South 9.7 km/h 16.1 km/h 78 % 0 mm 183 W/m2
12:08 17.6 °C 13.7 °C 1020.9 hPa South 9.7 km/h 17.7 km/h 78 % 0 mm 139 W/m2
12:13 17.6 °C 13.9 °C 1020.9 hPa SSW 9.7 km/h 17.7 km/h 79 % 0 mm 141 W/m2
12:18 17.5 °C 13.8 °C 1020.9 hPa South 11.3 km/h 17.7 km/h 79 % 0 mm 132 W/m2
12:23 17.4 °C 13.7 °C 1020.9 hPa SSE 11.3 km/h 16.1 km/h 79 % 0 mm 111 W/m2
12:28 17.4 °C 13.9 °C 1020.9 hPa SSE 8 km/h 17.7 km/h 80 % 0 mm 111 W/m2
12:33 17.4 °C 13.7 °C 1020.9 hPa South 8 km/h 20.9 km/h 79 % 0 mm 100 W/m2
12:38 17.3 °C 13.8 °C 1020.9 hPa South 8 km/h 20.9 km/h 80 % 0 mm 237 W/m2
12:43 17.4 °C 13.9 °C 1020.5 hPa SSE 6.4 km/h 11.3 km/h 80 % 0 mm 246 W/m2
12:48 17.6 °C 14.1 °C 1020.5 hPa South 8 km/h 16.1 km/h 80 % 0 mm 171 W/m2
12:53 17.6 °C 13.9 °C 1020.5 hPa South 9.7 km/h 19.3 km/h 79 % 0 mm 258 W/m2
12:58 17.6 °C 13.9 °C 1020.9 hPa SSE 9.7 km/h 19.3 km/h 79 % 0 mm 234 W/m2
13:03 17.6 °C 13.9 °C 1020.5 hPa South 9.7 km/h 14.5 km/h 79 % 0 mm 156 W/m2
13:08 17.7 °C 14 °C 1020.5 hPa SSW 8 km/h 14.5 km/h 79 % 0 mm 171 W/m2
13:13 17.7 °C 13.8 °C 1020.5 hPa South 8 km/h 19.3 km/h 78 % 0 mm 123 W/m2
13:18 17.6 °C 14.1 °C 1020.5 hPa South 11.3 km/h 19.3 km/h 80 % 0 mm 149 W/m2
13:23 17.6 °C 14.1 °C 1020.5 hPa SSE 9.7 km/h 17.7 km/h 80 % 0 mm 216 W/m2
13:28 17.7 °C 14.2 °C 1020.5 hPa SE 6.4 km/h 12.9 km/h 80 % 0 mm 167 W/m2
13:33 17.7 °C 14.2 °C 1020.2 hPa SSE 6.4 km/h 12.9 km/h 80 % 0 mm 169 W/m2
13:38 17.7 °C 14.2 °C 1020.2 hPa SSE 8 km/h 17.7 km/h 80 % 0 mm 202 W/m2
13:43 17.7 °C 14.2 °C 1020.2 hPa SSE 9.7 km/h 17.7 km/h 80 % 0 mm 211 W/m2
13:44 17.7 °C 14.2 °C 1020.2 hPa SSE 9.7 km/h 17.7 km/h 80 % 0 mm 241 W/m2
13:49 17.7 °C 14.2 °C 1020.2 hPa SSE 11.3 km/h 17.7 km/h 80 % 0 mm 292 W/m2
13:54 17.8 °C 14.3 °C 1020.2 hPa SSE 9.7 km/h 17.7 km/h 80 % 0 mm 241 W/m2
13:59 17.8 °C 14.3 °C 1020.2 hPa SE 9.7 km/h 17.7 km/h 80 % 0 mm 236 W/m2
14:04 17.8 °C 14.3 °C 1020.2 hPa SSE 11.3 km/h 17.7 km/h 80 % 0 mm 213 W/m2
14:09 17.8 °C 14.5 °C 1020.2 hPa SE 11.3 km/h 17.7 km/h 81 % 0 mm 211 W/m2
14:14 17.8 °C 14.3 °C 1020.2 hPa SSE 11.3 km/h 20.9 km/h 80 % 0 mm 132 W/m2
14:19 17.8 °C 14.3 °C 1020.2 hPa SSE 11.3 km/h 20.9 km/h 80 % 0 mm 137 W/m2
14:24 17.7 °C 14.4 °C 1020.2 hPa SSE 9.7 km/h 20.9 km/h 81 % 0 mm 104 W/m2
14:29 17.7 °C 14.4 °C 1020.2 hPa SSE 9.7 km/h 17.7 km/h 81 % 0 mm 104 W/m2
14:34 17.6 °C 14.3 °C 1020.5 hPa SSE 9.7 km/h 17.7 km/h 81 % 0 mm 98 W/m2
14:39 17.6 °C 14.3 °C 1020.5 hPa SSE 8 km/h 16.1 km/h 81 % 0 mm 100 W/m2
14:44 17.6 °C 14.5 °C 1020.2 hPa SSE 8 km/h 14.5 km/h 82 % 0 mm 102 W/m2
14:49 17.6 °C 14.5 °C 1019.9 hPa SE 9.7 km/h 19.3 km/h 82 % 0 mm 188 W/m2
14:54 17.6 °C 14.5 °C 1019.9 hPa SSE 11.3 km/h 19.3 km/h 82 % 0 mm 197 W/m2
14:59 17.7 °C 14.6 °C 1019.9 hPa SSE 8 km/h 16.1 km/h 82 % 0 mm 155 W/m2
15:04 17.7 °C 14.6 °C 1019.9 hPa South 9.7 km/h 20.9 km/h 82 % 0 mm 116 W/m2
15:09 17.7 °C 14.4 °C 1019.9 hPa South 11.3 km/h 20.9 km/h 81 % 0 mm 165 W/m2
15:14 17.8 °C 14.5 °C 1020.2 hPa South 9.7 km/h 16.1 km/h 81 % 0 mm 153 W/m2
15:19 17.8 °C 14.5 °C 1020.2 hPa South 9.7 km/h 17.7 km/h 81 % 0 mm 132 W/m2
15:24 17.8 °C 14.5 °C 1020.2 hPa SSW 9.7 km/h 17.7 km/h 81 % 0 mm 107 W/m2
15:29 17.8 °C 14.5 °C 1019.9 hPa South 9.7 km/h 16.1 km/h 81 % 0 mm 105 W/m2
15:34 17.8 °C 14.5 °C 1019.9 hPa SSE 8 km/h 14.5 km/h 81 % 0 mm 153 W/m2
15:35 17.9 °C 14.6 °C 1019.9 hPa SSE 8 km/h 12.9 km/h 81 % 0 mm 156 W/m2
15:40 17.9 °C 14.6 °C 1019.9 hPa SSE 8 km/h 17.7 km/h 81 % 0 mm 153 W/m2
15:45 17.9 °C 14.4 °C 1019.9 hPa SSE 9.7 km/h 17.7 km/h 80 % 0 mm 109 W/m2
15:46 17.9 °C 14.6 °C 1019.9 hPa SSE 9.7 km/h 17.7 km/h 81 % 0 mm 102 W/m2
15:51 18 °C 14.7 °C 1019.9 hPa South 6.4 km/h 16.1 km/h 81 % 0 mm 111 W/m2
15:56 18 °C 14.5 °C 1019.9 hPa SSE 6.4 km/h 16.1 km/h 80 % 0 mm 162 W/m2
16:01 18.1 °C 14.6 °C 1019.9 hPa South 9.7 km/h 16.1 km/h 80 % 0 mm 163 W/m2
16:06 18.1 °C 14.4 °C 1019.9 hPa South 11.3 km/h 19.3 km/h 79 % 0 mm 185 W/m2
16:11 18.1 °C 14.4 °C 1019.9 hPa South 11.3 km/h 19.3 km/h 79 % 0 mm 139 W/m2
16:16 18.1 °C 14.4 °C 1019.9 hPa South 11.3 km/h 17.7 km/h 79 % 0 mm 104 W/m2
16:21 18.1 °C 14.4 °C 1019.9 hPa SSE 9.7 km/h 17.7 km/h 79 % 0 mm 65 W/m2
16:26 18.1 °C 14.4 °C 1019.9 hPa South 9.7 km/h 14.5 km/h 79 % 0 mm 60 W/m2
16:31 18.1 °C 14.6 °C 1019.9 hPa South 8 km/h 14.5 km/h 80 % 0 mm 60 W/m2
16:36 18 °C 14.5 °C 1019.5 hPa SSE 9.7 km/h 16.1 km/h 80 % 0 mm 56 W/m2
16:41 17.9 °C 14.4 °C 1019.5 hPa SE 11.3 km/h 17.7 km/h 80 % 0 mm 91 W/m2
16:46 17.9 °C 14.6 °C 1019.2 hPa SE 11.3 km/h 17.7 km/h 81 % 0 mm 118 W/m2
16:51 17.9 °C 14.8 °C 1019.9 hPa SE 8 km/h 14.5 km/h 82 % 0 mm 74 W/m2
16:56 17.9 °C 14.9 °C 1019.9 hPa SSE 4.8 km/h 12.9 km/h 83 % 0 mm 51 W/m2
17:01 17.9 °C 14.9 °C 1019.9 hPa SSW 4.8 km/h 11.3 km/h 83 % 0 mm 54 W/m2
17:06 17.8 °C 14.9 °C 1019.9 hPa SSW 8 km/h 14.5 km/h 83 % 0 mm 77 W/m2
17:11 17.8 °C 15.1 °C 1019.9 hPa SSW 4.8 km/h 14.5 km/h 84 % 0 mm 95 W/m2
17:16 17.8 °C 15.2 °C 1019.9 hPa South 1.6 km/h 8 km/h 85 % 0 mm 95 W/m2
17:21 17.8 °C 15.1 °C 1019.9 hPa South 3.2 km/h 8 km/h 84 % 0 mm 81 W/m2
17:27 17.8 °C 15.1 °C 1019.9 hPa South 3.2 km/h 8 km/h 84 % 0 mm 72 W/m2
17:32 17.8 °C 15.2 °C 1019.9 hPa South 3.2 km/h 8 km/h 85 % 0 mm 56 W/m2
17:37 17.8 °C 15.1 °C 1019.9 hPa SSW 4.8 km/h 11.3 km/h 84 % 0 mm 54 W/m2
17:42 17.8 °C 15.1 °C 1019.9 hPa SSW 6.4 km/h 12.9 km/h 84 % 0 mm 74 W/m2
17:47 17.8 °C 15.2 °C 1019.5 hPa SW 4.8 km/h 12.9 km/h 85 % 0 mm 76 W/m2
17:52 17.7 °C 14.9 °C 1019.5 hPa SSW 4.8 km/h 11.3 km/h 84 % 0 mm 70 W/m2
17:55 17.8 °C 15.1 °C 1019.9 hPa South 4.8 km/h 11.3 km/h 84 % 0 mm 69 W/m2
18:00 17.7 °C 14.9 °C 1019.5 hPa South 4.8 km/h 14.5 km/h 84 % 0 mm 69 W/m2
18:05 17.8 °C 15.1 °C 1019.9 hPa South 4.8 km/h 14.5 km/h 84 % 0 mm 72 W/m2
18:11 17.8 °C 15.1 °C 1019.5 hPa SSW 4.8 km/h 11.3 km/h 84 % 0 mm 65 W/m2
18:16 17.8 °C 15.1 °C 1019.5 hPa SW 4.8 km/h 11.3 km/h 84 % 0 mm 54 W/m2
18:21 17.8 °C 14.9 °C 1019.5 hPa SW 8 km/h 12.9 km/h 83 % 0 mm 35 W/m2
18:26 17.7 °C 14.9 °C 1019.5 hPa SW 8 km/h 12.9 km/h 84 % 0 mm 35 W/m2
18:31 17.7 °C 14.8 °C 1019.5 hPa SSW 8 km/h 14.5 km/h 83 % 0 mm 53 W/m2
18:36 17.7 °C 14.8 °C 1019.5 hPa SSW 9.7 km/h 14.5 km/h 83 % 0 mm 54 W/m2
18:41 17.7 °C 14.8 °C 1019.5 hPa SSW 8 km/h 12.9 km/h 83 % 0 mm 56 W/m2
18:46 17.7 °C 14.9 °C 1019.5 hPa SSW 3.2 km/h 12.9 km/h 84 % 0 mm 47 W/m2
18:51 17.7 °C 14.9 °C 1019.5 hPa SW 1.6 km/h 9.7 km/h 84 % 0 mm 51 W/m2
18:56 17.8 °C 15.1 °C 1019.5 hPa SSW 3.2 km/h 9.7 km/h 84 % 0 mm 58 W/m2
19:01 17.8 °C 14.9 °C 1019.5 hPa SSW 4.8 km/h 11.3 km/h 83 % 0 mm 63 W/m2
19:02 17.8 °C 14.9 °C 1019.5 hPa SSW 4.8 km/h 11.3 km/h 83 % 0 mm 60 W/m2
19:07 17.8 °C 14.9 °C 1019.5 hPa South 6.4 km/h 11.3 km/h 83 % 0 mm 37 W/m2
19:12 17.8 °C 14.9 °C 1019.5 hPa South 6.4 km/h 11.3 km/h 83 % 0 mm 28 W/m2
19:17 17.7 °C 14.8 °C 1019.5 hPa South 4.8 km/h 9.7 km/h 83 % 0 mm 26 W/m2
19:22 17.7 °C 14.9 °C 1019.5 hPa SSW 4.8 km/h 9.7 km/h 84 % 0 mm 26 W/m2
19:27 17.7 °C 14.9 °C 1019.5 hPa SW 3.2 km/h 8 km/h 84 % 0 mm 21 W/m2
19:32 17.7 °C 14.9 °C 1019.5 hPa SW 1.6 km/h 6.4 km/h 84 % 0 mm 18 W/m2
19:37 17.7 °C 14.9 °C 1019.5 hPa SSW 3.2 km/h 12.9 km/h 84 % 0 mm 16 W/m2
19:42 17.7 °C 14.9 °C 1019.5 hPa SSW 6.4 km/h 12.9 km/h 84 % 0 mm 11 W/m2
19:47 17.7 °C 15.2 °C 1019.5 hPa SSW 4.8 km/h 12.9 km/h 85 % 0 mm 9 W/m2
19:52 17.7 °C 15.3 °C 1019.5 hPa SSW 3.2 km/h 11.3 km/h 86 % 0 mm 9 W/m2
19:57 17.6 °C 15.2 °C 1019.5 hPa SW 3.2 km/h 9.7 km/h 86 % 0 mm 7 W/m2
20:02 17.5 °C 15.1 °C 1019.5 hPa SW 3.2 km/h 9.7 km/h 86 % 0 mm 5 W/m2
20:08 17.4 °C 15.2 °C 1019.5 hPa SW 1.6 km/h 9.7 km/h 87 % 0 mm 0 W/m2
20:13 17.4 °C 15.2 °C 1019.5 hPa SW 1.6 km/h 8 km/h 87 % 0 mm 0 W/m2
20:18 17.3 °C 15.1 °C 1019.5 hPa Calm   8 km/h 87 % 0 mm 0 W/m2
20:23 17.3 °C 15.3 °C 1019.5 hPa Calm     88 % 0 mm 0 W/m2
20:28 17.3 °C 15.3 °C 1019.5 hPa Calm     88 % 0 mm 0 W/m2
20:33 17.3 °C 15.3 °C 1019.9 hPa Calm     88 % 0 mm 0 W/m2
20:38 17.2 °C 15.2 °C 1019.5 hPa Calm     88 % 0 mm 0 W/m2
20:43 17.2 °C 15.2 °C 1019.9 hPa Calm   1.6 km/h 88 % 0 mm 0 W/m2
20:48 17.2 °C 15.4 °C 1019.9 hPa Calm   1.6 km/h 89 % 0 mm 0 W/m2
20:53 17.2 °C 15.4 °C 1019.9 hPa Calm   3.2 km/h 89 % 0 mm 0 W/m2
20:58 17.1 °C 15.3 °C 1019.9 hPa Calm   3.2 km/h 89 % 0 mm 0 W/m2
21:03 17.1 °C 15.3 °C 1019.9 hPa Calm   3.2 km/h 89 % 0 mm 0 W/m2
21:08 17.1 °C 15.3 °C 1019.9 hPa Calm     89 % 0 mm 0 W/m2
21:13 17.1 °C 15.3 °C 1019.9 hPa Calm   3.2 km/h 89 % 0 mm 0 W/m2
21:18 17.1 °C 15.3 °C 1019.9 hPa Calm   6.4 km/h 89 % 0 mm 0 W/m2
21:23 17.1 °C 15.4 °C 1019.9 hPa Calm   6.4 km/h 90 % 0 mm 0 W/m2
21:28 17 °C 15.3 °C 1019.9 hPa Calm     90 % 0 mm 0 W/m2
21:33 16.9 °C 15.2 °C 1019.9 hPa Calm     90 % 0 mm 0 W/m2
21:38 16.9 °C 15.2 °C 1019.9 hPa Calm     90 % 0 mm 0 W/m2
21:43 16.8 °C 15.3 °C 1019.9 hPa Calm     91 % 0 mm 0 W/m2
21:48 16.8 °C 15.3 °C 1019.9 hPa Calm   1.6 km/h 91 % 0 mm 0 W/m2
21:53 16.8 °C 15.3 °C 1019.9 hPa Calm   1.6 km/h 91 % 0 mm 0 W/m2
21:58 16.7 °C 15.2 °C 1019.9 hPa Calm   1.6 km/h 91 % 0 mm 0 W/m2
22:03 16.7 °C 15.4 °C 1019.9 hPa Calm   3.2 km/h 92 % 0 mm 0 W/m2
22:09 16.7 °C 15.4 °C 1019.9 hPa Calm   3.2 km/h 92 % 0 mm 0 W/m2
22:14 16.7 °C 15.4 °C 1019.9 hPa Calm   6.4 km/h 92 % 0 mm 0 W/m2
22:19 16.6 °C 15.3 °C 1019.9 hPa Calm   6.4 km/h 92 % 0 mm 0 W/m2
22:24 16.6 °C 15.3 °C 1019.9 hPa Calm   1.6 km/h 92 % 0 mm 0 W/m2
22:29 16.6 °C 15.4 °C 1019.9 hPa Calm   3.2 km/h 93 % 0 mm 0 W/m2
22:34 16.5 °C 15.2 °C 1019.9 hPa Calm   3.2 km/h 92 % 0 mm 0 W/m2
22:39 16.5 °C 15.4 °C 1019.9 hPa Calm   3.2 km/h 93 % 0 mm 0 W/m2
22:44 16.5 °C 15.4 °C 1019.9 hPa Calm   1.6 km/h 93 % 0 mm 0 W/m2
22:49 16.5 °C 15.4 °C 1019.9 hPa Calm   1.6 km/h 93 % 0 mm 0 W/m2
22:54 16.5 °C 15.4 °C 1019.9 hPa Calm   1.6 km/h 93 % 0.25 mm 0 W/m2
22:59 16.5 °C 15.4 °C 1019.9 hPa Calm   3.2 km/h 93 % 0.25 mm 0 W/m2
23:04 16.4 °C 15.3 °C 1019.9 hPa Calm   3.2 km/h 93 % 0.25 mm 0 W/m2
23:09 16.4 °C 15.3 °C 1019.9 hPa Calm   1.6 km/h 93 % 0.25 mm 0 W/m2
23:14 16.4 °C 15.4 °C 1019.9 hPa Calm     94 % 0.25 mm 0 W/m2
23:19 16.4 °C 15.4 °C 1019.9 hPa Calm     94 % 0.25 mm 0 W/m2
23:24 16.4 °C 15.4 °C 1019.9 hPa Calm     94 % 0.25 mm 0 W/m2
23:29 16.3 °C 15.3 °C 1019.9 hPa Calm     94 % 0.25 mm 0 W/m2
23:34 16.3 °C 15.3 °C 1019.9 hPa Calm   3.2 km/h 94 % 0.25 mm 0 W/m2
23:39 16.3 °C 15.3 °C 1019.9 hPa Calm   3.2 km/h 94 % 0.25 mm 0 W/m2
23:44 16.3 °C 15.3 °C 1019.9 hPa Calm   4.8 km/h 94 % 0.25 mm 0 W/m2
23:49 16.3 °C 15.3 °C 1019.5 hPa Calm   4.8 km/h 94 % 0 mm 0 W/m2
23:54 16.3 °C 15.3 °C 1019.5 hPa Calm     94 % 0 mm 0 W/m2
23:59 16.3 °C 15.3 °C 1019.9 hPa Calm     94 % 0 mm 0 W/m2
Delerius-Weather
Compliments of Weather Underground - 2.25 mb

Data updates at regular intervals.